Time;durP1;ratioP1;P1;durP2;ratioP2;P2;SDS_P1;SDS_P2;PMS_P1;PMS_P2;Temp;Humidity;BMP_temperature;BMP_pressure;BME280_temperature;BME280_humidity;BME280_pressure;Samples;Min_cycle;Max_cycle;Signal;HPM_P1;HPM_P2
2023/07/26 06:48:15;;;;;;;1227.85;149.62;;;;;;;21.48;73.17;99388.63;5605668;31;88221;-61
2023/07/26 06:51:17;;;;;;;1572.07;190.68;;;;;;;21.48;73.17;99388.63;5583337;32;33375;-61
2023/07/26 06:54:19;;;;;;;291.15;33.15;;;;;;;21.18;68.89;99390.69;5583160;31;34188;-62
2023/07/26 06:57:22;;;;;;;653.20;44.47;;;;;;;21.31;68.55;99405.59;5583410;32;34269;-62
2023/07/26 07:00:24;;;;;;;1480.50;102.75;;;;;;;21.30;70.38;99395.88;5583339;31;34082;-62
2023/07/26 07:03:28;;;;;;;156.02;8.93;;;;;;;21.33;74.39;99414.19;5583371;32;33277;-62
2023/07/26 07:06:30;;;;;;;3.33;2.05;;;;;;;21.34;77.27;99408.38;5583195;32;33415;-62
2023/07/26 07:09:32;;;;;;;7.90;2.28;;;;;;;21.34;70.54;99422.03;5583450;32;34275;-59
2023/07/26 07:12:35;;;;;;;4.20;2.30;;;;;;;21.28;68.92;99436.34;5582976;31;33673;-59
2023/07/26 07:15:37;;;;;;;4.72;2.00;;;;;;;21.03;70.96;99428.72;5567993;32;33696;-59
2023/07/26 07:18:39;;;;;;;8.30;2.40;;;;;;;21.12;70.65;99437.37;5563581;32;34039;-59
2023/07/26 07:21:43;;;;;;;19.40;4.97;;;;;;;21.11;69.76;99433.06;5563721;32;33345;-59
2023/07/26 07:24:46;;;;;;;4.18;1.95;;;;;;;21.11;77.96;99446.69;5563564;32;33727;-59
2023/07/26 07:27:48;;;;;;;3.35;1.80;;;;;;;20.91;70.25;99452.69;5563488;32;33716;-59
2023/07/26 07:30:51;;;;;;;8.98;2.30;;;;;;;20.90;72.36;99448.41;5563381;32;33582;-58
2023/07/26 07:33:54;;;;;;;2.00;1.80;;;;;;;20.96;72.33;99461.34;5563288;32;33507;-59
2023/07/26 07:36:56;;;;;;;4.47;1.92;;;;;;;21.05;69.52;99450.91;5563583;32;33282;-59
2023/07/26 07:39:58;;;;;;;20.25;3.45;;;;;;;20.97;69.95;99459.37;5563365;32;33926;-59
2023/07/26 07:43:00;;;;;;;10.57;2.95;;;;;;;21.02;73.06;99465.25;5563761;32;34268;-59
2023/07/26 07:46:03;;;;;;;9.85;3.40;;;;;;;21.14;71.89;99461.50;5563080;32;33680;-59
2023/07/26 07:49:05;;;;;;;11.73;2.95;;;;;;;21.21;69.42;99464.31;5563295;32;33241;-59
2023/07/26 07:52:08;;;;;;;4.45;2.00;;;;;;;21.16;71.45;99480.19;5563274;32;33603;-59
2023/07/26 07:55:10;;;;;;;10.75;2.72;;;;;;;21.13;70.90;99492.66;5563169;32;33696;-59
2023/07/26 07:58:12;;;;;;;5.95;1.95;;;;;;;20.84;72.51;99494.25;5556171;32;33265;-58
2023/07/26 08:01:15;;;;;;;12.45;2.62;;;;;;;20.75;72.44;99499.19;5550247;32;33772;-59
2023/07/26 08:04:17;;;;;;;11.80;2.28;;;;;;;20.82;78.44;99504.72;5549971;32;34257;-59
2023/07/26 08:07:20;;;;;;;18.70;5.75;;;;;;;20.53;76.05;99507.09;5549129;32;33752;-60
2023/07/26 08:10:22;;;;;;;4.00;2.00;;;;;;;20.46;79.86;99509.66;5550097;32;34382;-59
2023/07/26 08:13:24;;;;;;;21.75;3.80;;;;;;;20.52;76.78;99518.34;5549882;32;33606;-59
2023/07/26 08:16:27;;;;;;;2.28;1.77;;;;;;;20.46;78.58;99515.13;5549992;32;33654;-59
2023/07/26 08:19:29;;;;;;;6.25;2.10;;;;;;;20.50;74.87;99521.41;5550175;32;34233;-60
2023/07/26 08:22:32;;;;;;;6.95;2.20;;;;;;;20.55;79.69;99525.78;5550082;32;34301;-60
2023/07/26 08:25:35;;;;;;;6.87;1.90;;;;;;;20.54;79.26;99518.78;5550033;32;34344;-60
2023/07/26 08:28:37;;;;;;;5.28;2.45;;;;;;;20.61;77.25;99519.66;5549816;32;34306;-60
2023/07/26 08:31:39;;;;;;;7.00;1.95;;;;;;;20.53;78.39;99509.00;5550209;32;34254;-60
2023/07/26 08:34:42;;;;;;;4.78;1.92;;;;;;;20.54;80.50;99529.66;5549858;32;33652;-60
2023/07/26 08:37:44;;;;;;;5.10;2.42;;;;;;;20.42;82.65;99534.13;5549695;32;33879;-60
2023/07/26 08:40:49;;;;;;;9.32;2.10;;;;;;;20.55;79.74;99537.44;5549928;32;34281;-60
2023/07/26 08:43:54;;;;;;;6.05;1.95;;;;;;;20.61;80.60;99532.47;5549798;32;34268;-61
2023/07/26 08:46:56;;;;;;;11.23;2.75;;;;;;;20.62;81.57;99548.44;5549578;32;33598;-61
2023/07/26 08:49:59;;;;;;;17.33;2.78;;;;;;;20.54;80.65;99544.06;5549881;32;34353;-60
2023/07/26 08:53:04;;;;;;;543.30;32.42;;;;;;;20.76;81.63;99552.50;5550005;32;33533;-60
2023/07/26 08:56:08;;;;;;;1053.97;69.57;;;;;;;20.84;78.39;99554.97;5549636;32;33577;-60
2023/07/26 08:59:11;;;;;;;136.12;10.43;;;;;;;20.85;80.00;99569.38;5549712;32;34377;-60
2023/07/26 09:02:15;;;;;;;87.35;8.05;;;;;;;20.79;80.20;99563.44;5549510;32;34378;-60
2023/07/26 09:05:18;;;;;;;162.93;9.30;;;;;;;20.78;79.58;99566.56;5549495;32;33765;-61
2023/07/26 09:08:20;;;;;;;28.12;21.70;;;;;;;20.58;77.99;99580.28;5549378;32;33719;-60
2023/07/26 09:11:25;;;;;;;47.10;41.17;;;;;;;20.63;80.10;99581.91;5548721;32;33583;-61
2023/07/26 09:14:29;;;;;;;5.47;2.17;;;;;;;20.79;76.42;99579.78;5549780;32;34391;-61
2023/07/26 09:17:50;;;;;;;3.65;2.05;;;;;;;20.68;79.66;99591.69;5549659;32;33848;-61
2023/07/26 09:21:01;;;;;;;2.75;1.80;;;;;;;20.65;79.77;99596.72;5549773;32;33654;-61
2023/07/26 09:24:04;;;;;;;8.45;2.28;;;;;;;20.54;73.84;99593.06;5549605;32;33700;-61
2023/07/26 09:27:09;;;;;;;3.35;1.87;;;;;;;20.56;79.01;99598.13;5549721;32;33600;-61
2023/07/26 09:30:20;;;;;;;6.63;1.90;;;;;;;20.52;77.63;99586.41;5549701;32;33506;-60
2023/07/26 09:33:23;;;;;;;5.12;2.10;;;;;;;20.52;79.60;99583.69;5549927;32;34239;-59
2023/07/26 09:36:25;;;;;;;3.47;2.22;;;;;;;20.82;79.13;99581.00;5549546;32;33596;-59
2023/07/26 09:39:32;;;;;;;7.20;2.20;;;;;;;20.95;76.97;99587.78;5549343;32;33748;-60
2023/07/26 09:42:46;;;;;;;5.07;2.35;;;;;;;20.75;75.32;99573.50;5549402;32;33406;-60
2023/07/26 09:46:04;;;;;;;26.70;11.20;;;;;;;20.99;77.36;99579.66;5549416;32;34172;-60
2023/07/26 09:49:09;;;;;;;10.55;3.30;;;;;;;20.98;75.22;99575.38;5549104;32;33674;-60
2023/07/26 09:52:12;;;;;;;5.22;2.10;;;;;;;21.05;73.66;99559.91;5549499;32;33573;-60
2023/07/26 09:55:16;;;;;;;4.85;1.83;;;;;;;21.11;73.00;99560.38;5549135;32;33680;-59
2023/07/26 09:58:27;;;;;;;3.15;1.67;;;;;;;21.17;73.94;99569.00;5549264;32;33672;-60
2023/07/26 10:01:33;;;;;;;6.78;2.42;;;;;;;21.29;71.06;99557.84;5549263;32;33347;-59
2023/07/26 10:04:54;;;;;;;7.85;2.10;;;;;;;21.30;71.75;99562.16;5549117;32;34272;-60
2023/07/26 10:07:56;;;;;;;7.18;2.03;;;;;;;21.25;72.58;99579.59;5549038;32;33615;-59
2023/07/26 10:11:05;;;;;;;5.47;2.70;;;;;;;21.10;71.77;99589.56;5549004;32;34263;-60
2023/07/26 10:14:09;;;;;;;3.08;2.10;;;;;;;20.97;72.44;99582.00;5549092;32;34231;-60
2023/07/26 10:17:14;;;;;;;4.85;2.47;;;;;;;21.02;73.61;99584.38;5549017;32;34389;-59
2023/07/26 10:20:17;;;;;;;2.42;1.70;;;;;;;21.15;75.32;99583.00;5548848;32;33739;-60
2023/07/26 10:23:20;;;;;;;3.42;1.95;;;;;;;21.10;72.10;99597.72;5549182;32;33580;-59
2023/07/26 10:26:23;;;;;;;3.95;1.95;;;;;;;21.05;68.00;99600.78;5548907;32;34014;-60
2023/07/26 10:29:26;;;;;;;2.85;1.77;;;;;;;21.02;71.49;99598.78;5548763;32;33145;-59
2023/07/26 10:32:28;;;;;;;3.80;1.85;;;;;;;20.90;69.60;99600.97;5549074;32;33664;-59
2023/07/26 10:35:33;;;;;;;2.58;2.10;;;;;;;20.72;70.77;99611.59;5548826;32;34852;-60
2023/07/26 10:38:40;;;;;;;3.50;2.00;;;;;;;20.52;72.19;99606.25;5548514;32;34276;-60
2023/07/26 10:41:52;;;;;;;2.50;1.80;;;;;;;20.54;72.11;99611.34;5548814;32;33664;-61
2023/07/26 10:44:57;;;;;;;3.00;2.40;;;;;;;20.61;69.98;99604.06;5548634;32;33759;-60
2023/07/26 10:47:59;;;;;;;2.45;1.87;;;;;;;20.56;71.31;99607.09;5548018;32;33619;-60
2023/07/26 10:51:24;;;;;;;3.50;1.90;;;;;;;20.56;70.36;99607.09;5548671;32;33281;-60
2023/07/26 10:54:41;;;;;;;2.42;2.00;;;;;;;20.57;72.69;99605.94;5548444;32;34503;-59
2023/07/26 10:57:49;;;;;;;3.95;2.10;;;;;;;20.45;72.69;99614.28;5548337;32;33675;-60
2023/07/26 11:01:00;;;;;;;2.30;1.90;;;;;;;20.35;72.65;99612.97;5548563;32;33652;-60
2023/07/26 11:04:09;;;;;;;2.37;2.05;;;;;;;20.49;72.01;99601.50;5548419;32;34362;-61
2023/07/26 11:07:12;;;;;;;5.37;2.33;;;;;;;20.46;71.42;99617.78;5548586;32;33235;-60
2023/07/26 11:10:22;;;;;;;7.57;3.03;;;;;;;20.36;72.55;99619.19;5548255;32;33749;-60
2023/07/26 11:13:28;;;;;;;3.05;2.10;;;;;;;20.21;70.54;99618.19;5547943;32;34260;-60
2023/07/26 11:16:32;;;;;;;3.87;2.30;;;;;;;20.19;70.84;99620.47;5548042;32;34307;-60
2023/07/26 11:19:46;;;;;;;5.15;2.40;;;;;;;20.35;70.69;99621.13;5548208;32;33637;-60
2023/07/26 11:22:49;;;;;;;5.78;2.90;;;;;;;20.44;71.20;99631.78;5547906;32;34184;-61
2023/07/26 11:25:53;;;;;;;7.47;2.12;;;;;;;20.62;71.35;99632.84;5547680;32;33591;-60
2023/07/26 11:28:59;;;;;;;164.62;19.35;;;;;;;20.61;70.26;99628.56;5548185;32;33630;-60
2023/07/26 11:32:03;;;;;;;13.93;3.37;;;;;;;20.81;69.99;99629.25;5548055;32;33628;-60
2023/07/26 11:35:05;;;;;;;18.10;4.05;;;;;;;20.77;67.95;99628.41;5550544;32;33729;-60
2023/07/26 11:38:14;;;;;;;61.85;6.32;;;;;;;20.88;66.34;99612.22;5550668;32;33650;-60
2023/07/26 11:41:19;;;;;;;9.05;3.08;;;;;;;20.95;66.96;99620.50;5550582;32;34010;-60
2023/07/26 11:44:22;;;;;;;;;;;;;;;21.04;70.74;99628.41;5550796;32;33637;-59
2023/07/26 11:47:25;;;;;;;26.15;3.30;;;;;;;21.02;70.16;99623.31;5550300;32;33521;-60
2023/07/26 11:50:28;;;;;;;14.93;2.85;;;;;;;20.99;69.19;99623.25;5550531;32;33550;-60
2023/07/26 11:53:33;;;;;;;8.38;2.12;;;;;;;21.13;67.48;99620.75;5550615;32;33734;-60
2023/07/26 11:56:46;;;;;;;;;;;;;;;21.00;65.73;99624.84;5550726;32;33639;-60
2023/07/26 11:59:49;;;;;;;14.15;3.03;;;;;;;20.80;66.00;99614.06;5550330;32;33996;-59
2023/07/26 12:02:51;;;;;;;2.53;1.67;;;;;;;20.79;65.39;99617.94;5550303;32;34326;-60
2023/07/26 12:05:54;;;;;;;2.15;1.90;;;;;;;20.81;65.44;99618.34;5550147;32;34309;-60
2023/07/26 12:09:11;;;;;;;3.00;2.20;;;;;;;20.86;66.79;99611.78;5550329;32;34257;-60
2023/07/26 12:12:13;;;;;;;5.68;2.30;;;;;;;20.87;64.39;99627.78;5550204;32;33563;-59
2023/07/26 12:15:16;;;;;;;3.62;2.00;;;;;;;20.82;67.53;99621.84;5550192;32;33760;-60
2023/07/26 12:18:23;;;;;;;6.18;2.37;;;;;;;20.71;65.24;99627.16;5550097;32;34349;-60
2023/07/26 12:21:25;;;;;;;4.18;2.40;;;;;;;20.61;67.08;99625.84;5550464;32;33746;-60
2023/07/26 12:24:27;;;;;;;3.72;2.10;;;;;;;20.69;66.61;99628.66;5550014;32;33870;-60
2023/07/26 12:27:34;;;;;;;3.50;1.70;;;;;;;20.95;65.97;99625.94;5549923;32;34344;-60
2023/07/26 12:30:36;;;;;;;2.10;1.50;;;;;;;21.10;65.07;99637.84;5550084;32;33943;-59
2023/07/26 12:33:56;;;;;;;6.65;2.58;;;;;;;21.06;63.54;99631.56;5549995;32;33665;-60
2023/07/26 12:37:00;;;;;;;25.08;5.37;;;;;;;21.09;66.58;99636.25;5550061;32;33601;-60
2023/07/26 12:40:03;;;;;;;1.40;1.30;;;;;;;21.11;71.93;99623.03;5549851;32;34491;-60
2023/07/26 12:43:26;;;;;;;4.60;1.75;;;;;;;21.06;62.73;99645.97;5550143;32;33212;-60
2023/07/26 12:46:28;;;;;;;2.15;1.50;;;;;;;21.03;62.12;99635.00;5549511;32;33676;-60
2023/07/26 12:49:47;;;;;;;3.45;1.67;;;;;;;21.05;63.29;99649.81;5549594;32;33707;-60
2023/07/26 12:52:49;;;;;;;2.97;1.55;;;;;;;21.03;62.70;99645.91;5549972;32;33708;-59
2023/07/26 12:55:53;;;;;;;5.50;1.62;;;;;;;21.30;64.63;99639.25;5549983;32;33725;-60
2023/07/26 12:58:55;;;;;;;5.90;1.83;;;;;;;21.35;63.00;99640.88;5549817;32;33761;-60
2023/07/26 13:02:10;;;;;;;1.00;1.00;;;;;;;21.12;62.41;99660.84;5550066;32;34398;-61
2023/07/26 13:05:12;;;;;;;8.73;1.37;;;;;;;21.00;63.22;99652.88;5549699;32;33824;-60
